sensor_id;sensor_type;location;lat;lon;timestamp;P1;durP1;ratioP1;P2;durP2;ratioP2
1024;SDS011;501;48.214;11.350;2023-07-28T00:02:04;5.10;;;3.77;;
1024;SDS011;501;48.214;11.350;2023-07-28T00:04:30;4.13;;;3.73;;
1024;SDS011;501;48.214;11.350;2023-07-28T00:06:56;4.97;;;3.90;;
1024;SDS011;501;48.214;11.350;2023-07-28T00:09:21;5.00;;;3.97;;
1024;SDS011;501;48.214;11.350;2023-07-28T00:11:48;4.57;;;4.10;;
1024;SDS011;501;48.214;11.350;2023-07-28T00:14:14;4.40;;;3.60;;
1024;SDS011;501;48.214;11.350;2023-07-28T00:16:40;4.60;;;4.20;;
1024;SDS011;501;48.214;11.350;2023-07-28T00:19:06;4.00;;;3.70;;
1024;SDS011;501;48.214;11.350;2023-07-28T00:21:31;5.97;;;3.70;;
1024;SDS011;501;48.214;11.350;2023-07-28T00:23:57;5.43;;;3.80;;
1024;SDS011;501;48.214;11.350;2023-07-28T00:26:23;4.30;;;3.17;;
1024;SDS011;501;48.214;11.350;2023-07-28T00:28:49;3.83;;;3.37;;
1024;SDS011;501;48.214;11.350;2023-07-28T00:31:14;4.30;;;3.40;;
1024;SDS011;501;48.214;11.350;2023-07-28T00:33:40;4.00;;;3.60;;
1024;SDS011;501;48.214;11.350;2023-07-28T00:36:07;3.90;;;3.50;;
1024;SDS011;501;48.214;11.350;2023-07-28T00:38:32;3.50;;;3.20;;
1024;SDS011;501;48.214;11.350;2023-07-28T00:40:58;3.70;;;3.17;;
1024;SDS011;501;48.214;11.350;2023-07-28T00:43:24;3.40;;;3.10;;
1024;SDS011;501;48.214;11.350;2023-07-28T00:45:49;3.53;;;3.13;;
1024;SDS011;501;48.214;11.350;2023-07-28T00:48:15;3.67;;;3.20;;
1024;SDS011;501;48.214;11.350;2023-07-28T00:50:42;3.90;;;3.57;;
1024;SDS011;501;48.214;11.350;2023-07-28T00:53:10;3.67;;;3.17;;
1024;SDS011;501;48.214;11.350;2023-07-28T00:55:36;3.50;;;3.20;;
1024;SDS011;501;48.214;11.350;2023-07-28T00:58:02;3.67;;;3.33;;
1024;SDS011;501;48.214;11.350;2023-07-28T01:00:28;3.43;;;3.13;;
1024;SDS011;501;48.214;11.350;2023-07-28T01:02:53;3.30;;;3.00;;
1024;SDS011;501;48.214;11.350;2023-07-28T01:05:21;3.77;;;3.47;;
1024;SDS011;501;48.214;11.350;2023-07-28T01:07:53;3.40;;;3.07;;
1024;SDS011;501;48.214;11.350;2023-07-28T01:10:36;3.40;;;3.10;;
1024;SDS011;501;48.214;11.350;2023-07-28T01:13:04;4.30;;;2.30;;
1024;SDS011;501;48.214;11.350;2023-07-28T01:15:29;3.30;;;3.00;;
1024;SDS011;501;48.214;11.350;2023-07-28T01:17:55;3.53;;;3.23;;
1024;SDS011;501;48.214;11.350;2023-07-28T01:20:22;4.40;;;3.40;;
1024;SDS011;501;48.214;11.350;2023-07-28T01:25:43;3.20;;;2.90;;
1024;SDS011;501;48.214;11.350;2023-07-28T01:28:13;6.73;;;4.03;;
1024;SDS011;501;48.214;11.350;2023-07-28T01:30:41;3.47;;;3.17;;
1024;SDS011;501;48.214;11.350;2023-07-28T01:33:07;3.10;;;2.80;;
1024;SDS011;501;48.214;11.350;2023-07-28T01:35:34;4.93;;;3.10;;
1024;SDS011;501;48.214;11.350;2023-07-28T01:38:05;4.17;;;3.77;;
1024;SDS011;501;48.214;11.350;2023-07-28T01:40:31;4.60;;;3.40;;
1024;SDS011;501;48.214;11.350;2023-07-28T01:42:57;3.60;;;3.30;;
1024;SDS011;501;48.214;11.350;2023-07-28T01:45:23;4.07;;;3.70;;
1024;SDS011;501;48.214;11.350;2023-07-28T01:47:48;3.63;;;3.20;;
1024;SDS011;501;48.214;11.350;2023-07-28T01:50:14;5.57;;;3.53;;
1024;SDS011;501;48.214;11.350;2023-07-28T01:52:39;5.83;;;3.70;;
1024;SDS011;501;48.214;11.350;2023-07-28T01:55:05;4.23;;;3.10;;
1024;SDS011;501;48.214;11.350;2023-07-28T01:57:34;3.73;;;3.07;;
1024;SDS011;501;48.214;11.350;2023-07-28T02:00:03;4.10;;;3.20;;
1024;SDS011;501;48.214;11.350;2023-07-28T02:02:30;4.27;;;3.70;;
1024;SDS011;501;48.214;11.350;2023-07-28T02:04:55;3.10;;;2.80;;
1024;SDS011;501;48.214;11.350;2023-07-28T02:07:21;4.13;;;2.90;;
1024;SDS011;501;48.214;11.350;2023-07-28T02:09:46;4.10;;;3.43;;
1024;SDS011;501;48.214;11.350;2023-07-28T02:12:12;4.53;;;3.63;;
1024;SDS011;501;48.214;11.350;2023-07-28T02:14:37;3.50;;;3.20;;
1024;SDS011;501;48.214;11.350;2023-07-28T02:17:03;3.80;;;3.40;;
1024;SDS011;501;48.214;11.350;2023-07-28T02:19:29;3.70;;;2.97;;
1024;SDS011;501;48.214;11.350;2023-07-28T02:21:54;5.00;;;3.33;;
1024;SDS011;501;48.214;11.350;2023-07-28T02:24:20;3.53;;;3.30;;
1024;SDS011;501;48.214;11.350;2023-07-28T02:26:45;5.37;;;3.17;;
1024;SDS011;501;48.214;11.350;2023-07-28T02:29:11;3.77;;;3.27;;
1024;SDS011;501;48.214;11.350;2023-07-28T02:31:37;3.50;;;3.20;;
1024;SDS011;501;48.214;11.350;2023-07-28T02:34:02;4.70;;;3.10;;
1024;SDS011;501;48.214;11.350;2023-07-28T02:36:28;3.53;;;3.23;;
1024;SDS011;501;48.214;11.350;2023-07-28T02:38:53;4.13;;;2.97;;
1024;SDS011;501;48.214;11.350;2023-07-28T02:41:19;2.80;;;2.60;;
1024;SDS011;501;48.214;11.350;2023-07-28T02:43:45;4.37;;;2.90;;
1024;SDS011;501;48.214;11.350;2023-07-28T02:46:10;3.43;;;2.80;;
1024;SDS011;501;48.214;11.350;2023-07-28T02:48:36;3.07;;;2.77;;
1024;SDS011;501;48.214;11.350;2023-07-28T02:51:01;4.03;;;3.10;;
1024;SDS011;501;48.214;11.350;2023-07-28T02:53:27;2.87;;;2.67;;
1024;SDS011;501;48.214;11.350;2023-07-28T02:55:52;4.00;;;2.97;;
1024;SDS011;501;48.214;11.350;2023-07-28T02:58:19;2.90;;;2.60;;
1024;SDS011;501;48.214;11.350;2023-07-28T03:00:44;4.30;;;3.80;;
1024;SDS011;501;48.214;11.350;2023-07-28T03:03:11;3.00;;;2.70;;
1024;SDS011;501;48.214;11.350;2023-07-28T03:05:37;3.80;;;3.37;;
1024;SDS011;501;48.214;11.350;2023-07-28T03:08:04;3.10;;;2.50;;
1024;SDS011;501;48.214;11.350;2023-07-28T03:10:29;3.37;;;2.97;;
1024;SDS011;501;48.214;11.350;2023-07-28T03:12:55;3.37;;;3.07;;
1024;SDS011;501;48.214;11.350;2023-07-28T03:15:21;2.60;;;2.40;;
1024;SDS011;501;48.214;11.350;2023-07-28T03:17:48;4.00;;;3.60;;
1024;SDS011;501;48.214;11.350;2023-07-28T03:20:13;2.80;;;2.60;;
1024;SDS011;501;48.214;11.350;2023-07-28T03:22:39;4.23;;;3.83;;
1024;SDS011;501;48.214;11.350;2023-07-28T03:25:05;4.13;;;2.90;;
1024;SDS011;501;48.214;11.350;2023-07-28T03:27:31;3.60;;;3.13;;
1024;SDS011;501;48.214;11.350;2023-07-28T03:29:56;3.17;;;2.87;;
1024;SDS011;501;48.214;11.350;2023-07-28T03:32:22;4.63;;;3.10;;
1024;SDS011;501;48.214;11.350;2023-07-28T03:34:48;4.87;;;3.20;;
1024;SDS011;501;48.214;11.350;2023-07-28T03:37:13;3.50;;;2.50;;
1024;SDS011;501;48.214;11.350;2023-07-28T03:39:39;3.10;;;2.80;;
1024;SDS011;501;48.214;11.350;2023-07-28T03:42:04;3.80;;;3.23;;
1024;SDS011;501;48.214;11.350;2023-07-28T03:44:30;3.37;;;3.07;;
1024;SDS011;501;48.214;11.350;2023-07-28T03:46:56;4.43;;;3.03;;
1024;SDS011;501;48.214;11.350;2023-07-28T03:49:21;4.20;;;2.77;;
1024;SDS011;501;48.214;11.350;2023-07-28T03:51:47;3.47;;;3.13;;
1024;SDS011;501;48.214;11.350;2023-07-28T03:54:12;3.30;;;2.97;;
1024;SDS011;501;48.214;11.350;2023-07-28T03:56:38;3.47;;;3.17;;
1024;SDS011;501;48.214;11.350;2023-07-28T03:59:04;4.77;;;3.17;;
1024;SDS011;501;48.214;11.350;2023-07-28T04:01:30;4.50;;;3.00;;
1024;SDS011;501;48.214;11.350;2023-07-28T04:03:56;3.87;;;2.97;;
1024;SDS011;501;48.214;11.350;2023-07-28T04:06:39;3.20;;;2.90;;
1024;SDS011;501;48.214;11.350;2023-07-28T04:09:08;4.40;;;2.73;;
1024;SDS011;501;48.214;11.350;2023-07-28T04:11:34;3.17;;;2.80;;
1024;SDS011;501;48.214;11.350;2023-07-28T04:14:00;4.87;;;3.37;;
1024;SDS011;501;48.214;11.350;2023-07-28T04:16:26;3.40;;;3.10;;
1024;SDS011;501;48.214;11.350;2023-07-28T04:18:52;2.80;;;2.60;;
1024;SDS011;501;48.214;11.350;2023-07-28T04:21:17;3.53;;;3.23;;
1024;SDS011;501;48.214;11.350;2023-07-28T04:23:43;3.97;;;3.10;;
1024;SDS011;501;48.214;11.350;2023-07-28T04:26:08;3.97;;;3.60;;
1024;SDS011;501;48.214;11.350;2023-07-28T04:28:34;6.57;;;3.13;;
1024;SDS011;501;48.214;11.350;2023-07-28T04:31:00;5.80;;;3.37;;
1024;SDS011;501;48.214;11.350;2023-07-28T04:33:26;3.40;;;3.00;;
1024;SDS011;501;48.214;11.350;2023-07-28T04:35:54;3.10;;;2.80;;
1024;SDS011;501;48.214;11.350;2023-07-28T04:38:20;3.80;;;3.10;;
1024;SDS011;501;48.214;11.350;2023-07-28T04:40:45;3.60;;;3.30;;
1024;SDS011;501;48.214;11.350;2023-07-28T04:43:11;4.47;;;3.60;;
1024;SDS011;501;48.214;11.350;2023-07-28T04:45:36;4.00;;;3.50;;
1024;SDS011;501;48.214;11.350;2023-07-28T04:48:05;3.47;;;3.17;;
1024;SDS011;501;48.214;11.350;2023-07-28T04:50:31;4.07;;;3.67;;
1024;SDS011;501;48.214;11.350;2023-07-28T04:53:01;4.00;;;3.23;;
1024;SDS011;501;48.214;11.350;2023-07-28T04:55:27;2.80;;;2.60;;
1024;SDS011;501;48.214;11.350;2023-07-28T04:57:53;5.67;;;3.60;;
1024;SDS011;501;48.214;11.350;2023-07-28T05:00:22;5.47;;;3.80;;
1024;SDS011;501;48.214;11.350;2023-07-28T05:02:48;4.00;;;3.40;;
1024;SDS011;501;48.214;11.350;2023-07-28T05:05:14;2.90;;;2.70;;
1024;SDS011;501;48.214;11.350;2023-07-28T05:07:40;4.30;;;3.87;;
1024;SDS011;501;48.214;11.350;2023-07-28T05:10:06;3.40;;;3.10;;
1024;SDS011;501;48.214;11.350;2023-07-28T05:12:32;3.73;;;2.90;;
1024;SDS011;501;48.214;11.350;2023-07-28T05:14:58;3.97;;;3.33;;
1024;SDS011;501;48.214;11.350;2023-07-28T05:17:24;3.60;;;2.80;;
1024;SDS011;501;48.214;11.350;2023-07-28T05:19:52;4.03;;;2.90;;
1024;SDS011;501;48.214;11.350;2023-07-28T05:22:17;3.00;;;2.80;;
1024;SDS011;501;48.214;11.350;2023-07-28T05:24:43;3.20;;;3.00;;
1024;SDS011;501;48.214;11.350;2023-07-28T05:27:10;3.20;;;3.00;;
1024;SDS011;501;48.214;11.350;2023-07-28T05:29:36;3.30;;;3.00;;
1024;SDS011;501;48.214;11.350;2023-07-28T05:32:02;5.17;;;3.10;;
1024;SDS011;501;48.214;11.350;2023-07-28T05:34:29;3.60;;;3.30;;
1024;SDS011;501;48.214;11.350;2023-07-28T05:36:54;3.27;;;3.00;;
1024;SDS011;501;48.214;11.350;2023-07-28T05:39:20;4.37;;;2.80;;
1024;SDS011;501;48.214;11.350;2023-07-28T05:41:46;3.20;;;2.90;;
1024;SDS011;501;48.214;11.350;2023-07-28T05:44:11;5.13;;;2.80;;
1024;SDS011;501;48.214;11.350;2023-07-28T05:46:37;3.60;;;2.80;;
1024;SDS011;501;48.214;11.350;2023-07-28T05:49:03;3.13;;;2.40;;
1024;SDS011;501;48.214;11.350;2023-07-28T05:51:28;3.27;;;2.97;;
1024;SDS011;501;48.214;11.350;2023-07-28T05:53:54;2.93;;;2.73;;
1024;SDS011;501;48.214;11.350;2023-07-28T05:56:20;3.47;;;3.17;;
1024;SDS011;501;48.214;11.350;2023-07-28T05:58:49;3.50;;;2.63;;
1024;SDS011;501;48.214;11.350;2023-07-28T06:01:15;3.10;;;2.80;;
1024;SDS011;501;48.214;11.350;2023-07-28T06:03:40;5.63;;;3.00;;
1024;SDS011;501;48.214;11.350;2023-07-28T06:06:06;4.27;;;2.50;;
1024;SDS011;501;48.214;11.350;2023-07-28T06:08:32;3.70;;;2.90;;
1024;SDS011;501;48.214;11.350;2023-07-28T06:10:58;4.00;;;2.83;;
1024;SDS011;501;48.214;11.350;2023-07-28T06:13:23;3.57;;;3.00;;
1024;SDS011;501;48.214;11.350;2023-07-28T06:15:49;3.30;;;3.00;;
1024;SDS011;501;48.214;11.350;2023-07-28T06:18:15;3.30;;;2.77;;
1024;SDS011;501;48.214;11.350;2023-07-28T06:20:42;2.70;;;2.50;;
1024;SDS011;501;48.214;11.350;2023-07-28T06:23:08;6.03;;;3.10;;
1024;SDS011;501;48.214;11.350;2023-07-28T06:25:34;3.57;;;2.33;;
1024;SDS011;501;48.214;11.350;2023-07-28T06:28:00;2.90;;;2.63;;
1024;SDS011;501;48.214;11.350;2023-07-28T06:30:26;2.67;;;2.47;;
1024;SDS011;501;48.214;11.350;2023-07-28T06:32:51;2.80;;;2.60;;
1024;SDS011;501;48.214;11.350;2023-07-28T06:35:17;3.40;;;2.73;;
1024;SDS011;501;48.214;11.350;2023-07-28T06:37:43;4.50;;;2.37;;
1024;SDS011;501;48.214;11.350;2023-07-28T06:40:08;3.43;;;2.43;;
1024;SDS011;501;48.214;11.350;2023-07-28T06:42:35;2.97;;;2.10;;
1024;SDS011;501;48.214;11.350;2023-07-28T06:45:01;3.20;;;2.17;;
1024;SDS011;501;48.214;11.350;2023-07-28T06:47:28;4.37;;;3.27;;
1024;SDS011;501;48.214;11.350;2023-07-28T06:49:53;3.00;;;2.70;;
1024;SDS011;501;48.214;11.350;2023-07-28T06:52:19;3.70;;;2.70;;
1024;SDS011;501;48.214;11.350;2023-07-28T06:54:44;3.70;;;2.47;;
1024;SDS011;501;48.214;11.350;2023-07-28T06:57:12;2.60;;;2.40;;
1024;SDS011;501;48.214;11.350;2023-07-28T06:59:37;2.97;;;2.77;;
1024;SDS011;501;48.214;11.350;2023-07-28T07:02:03;2.60;;;2.40;;
1024;SDS011;501;48.214;11.350;2023-07-28T07:04:30;2.87;;;2.63;;
1024;SDS011;501;48.214;11.350;2023-07-28T07:06:55;2.50;;;2.30;;
1024;SDS011;501;48.214;11.350;2023-07-28T07:09:21;2.70;;;2.50;;
1024;SDS011;501;48.214;11.350;2023-07-28T07:11:46;3.20;;;2.90;;
1024;SDS011;501;48.214;11.350;2023-07-28T07:14:12;3.80;;;2.47;;
1024;SDS011;501;48.214;11.350;2023-07-28T07:16:39;3.10;;;2.70;;
1024;SDS011;501;48.214;11.350;2023-07-28T07:19:05;3.33;;;2.87;;
1024;SDS011;501;48.214;11.350;2023-07-28T07:21:31;2.70;;;2.47;;
1024;SDS011;501;48.214;11.350;2023-07-28T07:23:56;2.60;;;2.40;;
1024;SDS011;501;48.214;11.350;2023-07-28T07:26:22;3.70;;;2.87;;
1024;SDS011;501;48.214;11.350;2023-07-28T07:28:48;3.30;;;2.70;;
1024;SDS011;501;48.214;11.350;2023-07-28T07:31:14;3.70;;;2.83;;
1024;SDS011;501;48.214;11.350;2023-07-28T07:33:40;4.27;;;3.07;;
1024;SDS011;501;48.214;11.350;2023-07-28T07:36:16;3.40;;;2.87;;
1024;SDS011;501;48.214;11.350;2023-07-28T07:38:42;2.87;;;2.63;;
1024;SDS011;501;48.214;11.350;2023-07-28T07:41:14;3.00;;;2.70;;
1024;SDS011;501;48.214;11.350;2023-07-28T07:43:46;2.93;;;2.60;;
1024;SDS011;501;48.214;11.350;2023-07-28T07:46:13;2.60;;;2.40;;
1024;SDS011;501;48.214;11.350;2023-07-28T07:48:39;3.07;;;2.83;;
1024;SDS011;501;48.214;11.350;2023-07-28T07:51:04;3.30;;;2.60;;
1024;SDS011;501;48.214;11.350;2023-07-28T07:53:30;3.90;;;2.70;;
1024;SDS011;501;48.214;11.350;2023-07-28T07:55:56;3.00;;;2.73;;
1024;SDS011;501;48.214;11.350;2023-07-28T07:58:21;6.50;;;2.33;;
1024;SDS011;501;48.214;11.350;2023-07-28T08:00:47;3.40;;;3.03;;
1024;SDS011;501;48.214;11.350;2023-07-28T08:03:13;4.20;;;2.70;;
1024;SDS011;501;48.214;11.350;2023-07-28T08:05:38;1.93;;;1.83;;
1024;SDS011;501;48.214;11.350;2023-07-28T08:08:04;4.20;;;2.47;;
1024;SDS011;501;48.214;11.350;2023-07-28T08:10:32;4.73;;;2.50;;
1024;SDS011;501;48.214;11.350;2023-07-28T08:12:58;6.50;;;2.50;;
1024;SDS011;501;48.214;11.350;2023-07-28T08:15:24;2.70;;;1.80;;
1024;SDS011;501;48.214;11.350;2023-07-28T08:17:50;2.23;;;1.97;;
1024;SDS011;501;48.214;11.350;2023-07-28T08:20:17;3.33;;;1.97;;
1024;SDS011;501;48.214;11.350;2023-07-28T08:22:42;2.40;;;2.20;;
1024;SDS011;501;48.214;11.350;2023-07-28T08:25:08;3.00;;;2.73;;
1024;SDS011;501;48.214;11.350;2023-07-28T08:27:34;3.57;;;2.50;;
1024;SDS011;501;48.214;11.350;2023-07-28T08:29:59;3.50;;;2.67;;
1024;SDS011;501;48.214;11.350;2023-07-28T08:32:25;2.33;;;2.13;;
1024;SDS011;501;48.214;11.350;2023-07-28T08:34:51;3.10;;;2.17;;
1024;SDS011;501;48.214;11.350;2023-07-28T08:37:16;2.23;;;1.90;;
1024;SDS011;501;48.214;11.350;2023-07-28T08:39:42;3.00;;;2.30;;
1024;SDS011;501;48.214;11.350;2023-07-28T08:42:08;2.40;;;2.07;;
1024;SDS011;501;48.214;11.350;2023-07-28T08:44:34;2.40;;;1.77;;
1024;SDS011;501;48.214;11.350;2023-07-28T08:47:00;4.00;;;2.13;;
1024;SDS011;501;48.214;11.350;2023-07-28T08:49:27;4.93;;;2.77;;
1024;SDS011;501;48.214;11.350;2023-07-28T08:51:59;2.50;;;2.30;;
1024;SDS011;501;48.214;11.350;2023-07-28T08:54:25;2.40;;;2.07;;
1024;SDS011;501;48.214;11.350;2023-07-28T08:56:51;2.23;;;1.90;;
1024;SDS011;501;48.214;11.350;2023-07-28T08:59:24;3.30;;;2.17;;
1024;SDS011;501;48.214;11.350;2023-07-28T09:01:52;2.47;;;2.07;;
1024;SDS011;501;48.214;11.350;2023-07-28T09:04:19;2.87;;;2.30;;
1024;SDS011;501;48.214;11.350;2023-07-28T09:06:46;2.23;;;1.70;;
1024;SDS011;501;48.214;11.350;2023-07-28T09:09:13;1.80;;;1.70;;
1024;SDS011;501;48.214;11.350;2023-07-28T09:14:13;2.50;;;2.30;;
1024;SDS011;501;48.214;11.350;2023-07-28T09:16:41;2.20;;;2.00;;
1024;SDS011;501;48.214;11.350;2023-07-28T09:19:07;4.37;;;2.57;;
1024;SDS011;501;48.214;11.350;2023-07-28T09:21:33;2.60;;;2.03;;
1024;SDS011;501;48.214;11.350;2023-07-28T09:24:00;2.97;;;2.07;;
1024;SDS011;501;48.214;11.350;2023-07-28T09:26:38;2.13;;;1.90;;
1024;SDS011;501;48.214;11.350;2023-07-28T09:29:17;3.00;;;2.70;;
1024;SDS011;501;48.214;11.350;2023-07-28T09:31:47;3.30;;;2.10;;
1024;SDS011;501;48.214;11.350;2023-07-28T09:34:24;2.40;;;2.20;;
1024;SDS011;501;48.214;11.350;2023-07-28T09:36:52;2.60;;;2.40;;
1024;SDS011;501;48.214;11.350;2023-07-28T09:39:18;2.40;;;2.20;;
1024;SDS011;501;48.214;11.350;2023-07-28T09:41:45;2.40;;;1.80;;
1024;SDS011;501;48.214;11.350;2023-07-28T09:44:12;3.10;;;2.20;;
1024;SDS011;501;48.214;11.350;2023-07-28T09:46:37;2.00;;;1.57;;
1024;SDS011;501;48.214;11.350;2023-07-28T09:49:20;5.37;;;2.40;;
1024;SDS011;501;48.214;11.350;2023-07-28T09:51:48;4.13;;;2.30;;
1024;SDS011;501;48.214;11.350;2023-07-28T09:54:28;2.50;;;2.07;;
1024;SDS011;501;48.214;11.350;2023-07-28T09:56:58;3.20;;;2.33;;
1024;SDS011;501;48.214;11.350;2023-07-28T09:59:38;3.70;;;2.40;;
1024;SDS011;501;48.214;11.350;2023-07-28T10:02:04;2.57;;;2.30;;
1024;SDS011;501;48.214;11.350;2023-07-28T10:04:30;3.20;;;2.37;;
1024;SDS011;501;48.214;11.350;2023-07-28T10:06:59;3.00;;;2.00;;
1024;SDS011;501;48.214;11.350;2023-07-28T10:09:26;2.80;;;2.40;;
1024;SDS011;501;48.214;11.350;2023-07-28T10:11:55;3.70;;;3.30;;
1024;SDS011;501;48.214;11.350;2023-07-28T10:14:28;2.93;;;2.63;;
1024;SDS011;501;48.214;11.350;2023-07-28T10:16:58;3.93;;;2.50;;
1024;SDS011;501;48.214;11.350;2023-07-28T10:19:24;2.20;;;2.00;;
1024;SDS011;501;48.214;11.350;2023-07-28T10:21:58;2.57;;;2.33;;
1024;SDS011;501;48.214;11.350;2023-07-28T10:30:05;5.27;;;2.60;;
1024;SDS011;501;48.214;11.350;2023-07-28T10:32:37;4.40;;;2.17;;
1024;SDS011;501;48.214;11.350;2023-07-28T10:37:39;2.20;;;2.00;;
1024;SDS011;501;48.214;11.350;2023-07-28T10:40:23;1.90;;;1.80;;
1024;SDS011;501;48.214;11.350;2023-07-28T10:42:50;3.10;;;2.80;;
1024;SDS011;501;48.214;11.350;2023-07-28T10:45:17;3.17;;;2.80;;
1024;SDS011;501;48.214;11.350;2023-07-28T10:47:43;2.73;;;2.53;;
1024;SDS011;501;48.214;11.350;2023-07-28T10:50:10;3.27;;;2.53;;
1024;SDS011;501;48.214;11.350;2023-07-28T10:52:39;3.20;;;2.90;;
1024;SDS011;501;48.214;11.350;2023-07-28T10:55:11;3.03;;;2.43;;
1024;SDS011;501;48.214;11.350;2023-07-28T10:57:41;3.87;;;2.80;;
1024;SDS011;501;48.214;11.350;2023-07-28T11:00:08;2.50;;;2.30;;
1024;SDS011;501;48.214;11.350;2023-07-28T11:02:41;2.50;;;2.13;;
1024;SDS011;501;48.214;11.350;2023-07-28T11:05:11;2.83;;;2.50;;
1024;SDS011;501;48.214;11.350;2023-07-28T11:07:42;2.30;;;2.10;;
1024;SDS011;501;48.214;11.350;2023-07-28T11:10:11;3.20;;;2.60;;
1024;SDS011;501;48.214;11.350;2023-07-28T11:12:42;3.07;;;2.77;;
1024;SDS011;501;48.214;11.350;2023-07-28T11:15:09;3.50;;;2.33;;
1024;SDS011;501;48.214;11.350;2023-07-28T11:17:36;2.40;;;2.20;;
1024;SDS011;501;48.214;11.350;2023-07-28T11:20:04;2.73;;;2.53;;
1024;SDS011;501;48.214;11.350;2023-07-28T11:22:54;2.77;;;2.50;;
1024;SDS011;501;48.214;11.350;2023-07-28T11:25:21;2.77;;;2.57;;
1024;SDS011;501;48.214;11.350;2023-07-28T11:27:48;3.00;;;2.47;;
1024;SDS011;501;48.214;11.350;2023-07-28T11:30:15;2.50;;;2.13;;
1024;SDS011;501;48.214;11.350;2023-07-28T11:32:43;3.00;;;2.60;;
1024;SDS011;501;48.214;11.350;2023-07-28T11:35:11;2.80;;;2.53;;
1024;SDS011;501;48.214;11.350;2023-07-28T11:37:38;2.73;;;2.47;;
1024;SDS011;501;48.214;11.350;2023-07-28T11:40:05;3.13;;;2.57;;
1024;SDS011;501;48.214;11.350;2023-07-28T11:42:35;6.40;;;2.60;;
1024;SDS011;501;48.214;11.350;2023-07-28T11:45:19;2.73;;;2.07;;
1024;SDS011;501;48.214;11.350;2023-07-28T11:50:23;2.40;;;2.20;;
1024;SDS011;501;48.214;11.350;2023-07-28T11:52:50;3.50;;;2.10;;
1024;SDS011;501;48.214;11.350;2023-07-28T11:55:16;2.67;;;2.47;;
1024;SDS011;501;48.214;11.350;2023-07-28T11:57:42;2.90;;;2.60;;
1024;SDS011;501;48.214;11.350;2023-07-28T12:00:08;2.57;;;2.30;;
1024;SDS011;501;48.214;11.350;2023-07-28T12:02:37;2.30;;;2.10;;
1024;SDS011;501;48.214;11.350;2023-07-28T12:05:03;2.17;;;2.00;;
1024;SDS011;501;48.214;11.350;2023-07-28T12:07:37;2.43;;;2.23;;
1024;SDS011;501;48.214;11.350;2023-07-28T12:10:03;2.67;;;2.33;;
1024;SDS011;501;48.214;11.350;2023-07-28T12:12:39;2.30;;;2.10;;
1024;SDS011;501;48.214;11.350;2023-07-28T12:20:41;3.87;;;2.80;;
1024;SDS011;501;48.214;11.350;2023-07-28T12:23:11;2.37;;;1.90;;
1024;SDS011;501;48.214;11.350;2023-07-28T12:25:38;3.07;;;2.77;;
1024;SDS011;501;48.214;11.350;2023-07-28T12:28:04;2.70;;;2.30;;
1024;SDS011;501;48.214;11.350;2023-07-28T12:30:31;3.20;;;2.23;;
1024;SDS011;501;48.214;11.350;2023-07-28T12:32:57;2.70;;;2.50;;
1024;SDS011;501;48.214;11.350;2023-07-28T12:35:25;3.67;;;2.80;;
1024;SDS011;501;48.214;11.350;2023-07-28T12:37:55;2.97;;;2.30;;
1024;SDS011;501;48.214;11.350;2023-07-28T12:40:22;3.53;;;2.20;;
1024;SDS011;501;48.214;11.350;2023-07-28T12:42:48;2.93;;;2.73;;
1024;SDS011;501;48.214;11.350;2023-07-28T12:45:14;2.63;;;2.27;;
1024;SDS011;501;48.214;11.350;2023-07-28T12:47:41;2.63;;;2.43;;
1024;SDS011;501;48.214;11.350;2023-07-28T12:50:07;2.23;;;2.03;;
1024;SDS011;501;48.214;11.350;2023-07-28T12:52:33;2.90;;;2.70;;
1024;SDS011;501;48.214;11.350;2023-07-28T12:54:59;3.70;;;2.67;;
1024;SDS011;501;48.214;11.350;2023-07-28T12:57:24;2.70;;;2.50;;
1024;SDS011;501;48.214;11.350;2023-07-28T12:59:50;2.83;;;2.63;;
1024;SDS011;501;48.214;11.350;2023-07-28T13:02:17;2.90;;;2.70;;
1024;SDS011;501;48.214;11.350;2023-07-28T13:04:42;3.27;;;2.97;;
1024;SDS011;501;48.214;11.350;2023-07-28T13:07:08;3.20;;;2.30;;
1024;SDS011;501;48.214;11.350;2023-07-28T13:09:34;3.23;;;2.50;;
1024;SDS011;501;48.214;11.350;2023-07-28T13:12:00;2.90;;;2.60;;
1024;SDS011;501;48.214;11.350;2023-07-28T13:14:26;2.90;;;2.40;;
1024;SDS011;501;48.214;11.350;2023-07-28T13:16:51;3.13;;;2.90;;
1024;SDS011;501;48.214;11.350;2023-07-28T13:19:17;3.10;;;2.40;;
1024;SDS011;501;48.214;11.350;2023-07-28T13:21:43;7.40;;;2.80;;
1024;SDS011;501;48.214;11.350;2023-07-28T13:24:08;2.97;;;2.70;;
1024;SDS011;501;48.214;11.350;2023-07-28T13:26:34;4.10;;;2.60;;
1024;SDS011;501;48.214;11.350;2023-07-28T13:29:00;3.00;;;2.23;;
1024;SDS011;501;48.214;11.350;2023-07-28T13:31:27;4.13;;;2.60;;
1024;SDS011;501;48.214;11.350;2023-07-28T13:33:53;4.70;;;2.90;;
1024;SDS011;501;48.214;11.350;2023-07-28T13:36:19;2.60;;;2.40;;
1024;SDS011;501;48.214;11.350;2023-07-28T13:38:45;2.80;;;2.50;;
1024;SDS011;501;48.214;11.350;2023-07-28T13:41:11;2.70;;;2.50;;
1024;SDS011;501;48.214;11.350;2023-07-28T13:43:36;7.73;;;2.97;;
1024;SDS011;501;48.214;11.350;2023-07-28T13:46:03;2.87;;;2.67;;
1024;SDS011;501;48.214;11.350;2023-07-28T13:48:32;2.60;;;2.40;;
1024;SDS011;501;48.214;11.350;2023-07-28T13:50:58;3.50;;;2.83;;
1024;SDS011;501;48.214;11.350;2023-07-28T13:53:24;3.30;;;2.53;;
1024;SDS011;501;48.214;11.350;2023-07-28T13:55:50;3.10;;;2.30;;
1024;SDS011;501;48.214;11.350;2023-07-28T13:58:16;4.57;;;2.40;;
1024;SDS011;501;48.214;11.350;2023-07-28T14:00:43;2.60;;;2.40;;
1024;SDS011;501;48.214;11.350;2023-07-28T14:03:08;3.00;;;2.70;;
1024;SDS011;501;48.214;11.350;2023-07-28T14:05:35;3.40;;;2.70;;
1024;SDS011;501;48.214;11.350;2023-07-28T14:08:00;3.03;;;2.67;;
1024;SDS011;501;48.214;11.350;2023-07-28T14:10:26;2.87;;;2.57;;
1024;SDS011;501;48.214;11.350;2023-07-28T14:12:52;2.40;;;2.20;;
1024;SDS011;501;48.214;11.350;2023-07-28T14:15:18;3.60;;;3.03;;
1024;SDS011;501;48.214;11.350;2023-07-28T14:17:43;3.40;;;2.97;;
1024;SDS011;501;48.214;11.350;2023-07-28T14:20:09;4.00;;;2.63;;
1024;SDS011;501;48.214;11.350;2023-07-28T14:22:35;2.77;;;2.57;;
1024;SDS011;501;48.214;11.350;2023-07-28T14:25:02;3.73;;;2.90;;
1024;SDS011;501;48.214;11.350;2023-07-28T14:27:27;3.30;;;3.00;;
1024;SDS011;501;48.214;11.350;2023-07-28T14:29:53;4.60;;;3.20;;
1024;SDS011;501;48.214;11.350;2023-07-28T14:32:19;5.90;;;3.07;;
1024;SDS011;501;48.214;11.350;2023-07-28T14:34:44;3.53;;;3.23;;
1024;SDS011;501;48.214;11.350;2023-07-28T14:37:10;3.90;;;3.20;;
1024;SDS011;501;48.214;11.350;2023-07-28T14:39:36;5.87;;;3.30;;
1024;SDS011;501;48.214;11.350;2023-07-28T14:42:02;3.90;;;2.90;;
1024;SDS011;501;48.214;11.350;2023-07-28T14:44:28;5.30;;;3.37;;
1024;SDS011;501;48.214;11.350;2023-07-28T14:46:54;3.60;;;3.03;;
1024;SDS011;501;48.214;11.350;2023-07-28T14:49:20;5.13;;;3.10;;
1024;SDS011;501;48.214;11.350;2023-07-28T14:51:46;3.00;;;2.80;;
1024;SDS011;501;48.214;11.350;2023-07-28T14:54:12;3.53;;;3.23;;
1024;SDS011;501;48.214;11.350;2023-07-28T14:56:37;4.50;;;2.73;;
1024;SDS011;501;48.214;11.350;2023-07-28T14:59:03;3.53;;;3.23;;
1024;SDS011;501;48.214;11.350;2023-07-28T15:01:32;6.63;;;3.70;;
1024;SDS011;501;48.214;11.350;2023-07-28T15:03:58;3.40;;;3.10;;
1024;SDS011;501;48.214;11.350;2023-07-28T15:06:26;4.70;;;3.47;;
1024;SDS011;501;48.214;11.350;2023-07-28T15:08:52;3.73;;;2.80;;
1024;SDS011;501;48.214;11.350;2023-07-28T15:11:18;2.30;;;2.10;;
1024;SDS011;501;48.214;11.350;2023-07-28T15:13:44;4.60;;;2.83;;
1024;SDS011;501;48.214;11.350;2023-07-28T15:16:09;2.63;;;2.43;;
1024;SDS011;501;48.214;11.350;2023-07-28T15:18:35;2.70;;;2.10;;
1024;SDS011;501;48.214;11.350;2023-07-28T15:21:01;2.30;;;2.17;;
1024;SDS011;501;48.214;11.350;2023-07-28T15:23:27;2.80;;;2.60;;
1024;SDS011;501;48.214;11.350;2023-07-28T15:25:53;2.90;;;2.60;;
1024;SDS011;501;48.214;11.350;2023-07-28T15:28:22;2.27;;;2.10;;
1024;SDS011;501;48.214;11.350;2023-07-28T15:30:49;5.33;;;3.00;;
1024;SDS011;501;48.214;11.350;2023-07-28T15:33:20;2.80;;;2.60;;
1024;SDS011;501;48.214;11.350;2023-07-28T15:35:47;3.90;;;2.40;;